sensor_id;sensor_type;location;lat;lon;timestamp;temperature;humidity
9847;DHT22;4962;50.084;8.794;2022-10-15T00:00:38;18.80;99.90
9847;DHT22;4962;50.084;8.794;2022-10-15T00:03:05;18.80;99.90
9847;DHT22;4962;50.084;8.794;2022-10-15T00:05:35;18.70;99.90
9847;DHT22;4962;50.084;8.794;2022-10-15T00:08:03;18.70;99.90
9847;DHT22;4962;50.084;8.794;2022-10-15T00:10:30;18.70;99.90
9847;DHT22;4962;50.084;8.794;2022-10-15T00:12:58;18.70;99.90
9847;DHT22;4962;50.084;8.794;2022-10-15T00:15:25;18.70;99.90
9847;DHT22;4962;50.084;8.794;2022-10-15T00:17:52;18.60;99.90
9847;DHT22;4962;50.084;8.794;2022-10-15T00:20:19;18.60;99.90
9847;DHT22;4962;50.084;8.794;2022-10-15T00:22:46;18.60;99.90
9847;DHT22;4962;50.084;8.794;2022-10-15T00:25:13;18.50;99.90
9847;DHT22;4962;50.084;8.794;2022-10-15T00:27:40;18.50;99.90
9847;DHT22;4962;50.084;8.794;2022-10-15T00:30:09;18.50;99.90
9847;DHT22;4962;50.084;8.794;2022-10-15T00:32:36;18.50;99.90
9847;DHT22;4962;50.084;8.794;2022-10-15T00:35:04;18.40;99.90
9847;DHT22;4962;50.084;8.794;2022-10-15T00:37:31;18.40;99.90
9847;DHT22;4962;50.084;8.794;2022-10-15T00:39:58;18.40;99.90
9847;DHT22;4962;50.084;8.794;2022-10-15T00:42:25;18.30;99.90
9847;DHT22;4962;50.084;8.794;2022-10-15T00:44:54;18.30;99.90
9847;DHT22;4962;50.084;8.794;2022-10-15T00:47:34;18.40;99.90
9847;DHT22;4962;50.084;8.794;2022-10-15T00:50:05;18.30;99.90
9847;DHT22;4962;50.084;8.794;2022-10-15T00:52:40;18.30;99.90
9847;DHT22;4962;50.084;8.794;2022-10-15T00:55:11;18.30;99.90
9847;DHT22;4962;50.084;8.794;2022-10-15T00:57:39;18.30;99.90
9847;DHT22;4962;50.084;8.794;2022-10-15T01:00:08;18.30;99.90
9847;DHT22;4962;50.084;8.794;2022-10-15T01:02:37;18.30;99.90
9847;DHT22;4962;50.084;8.794;2022-10-15T01:05:05;18.30;99.90
9847;DHT22;4962;50.084;8.794;2022-10-15T01:07:32;18.20;99.90
9847;DHT22;4962;50.084;8.794;2022-10-15T01:10:00;18.20;99.90
9847;DHT22;4962;50.084;8.794;2022-10-15T01:12:37;18.20;99.90
9847;DHT22;4962;50.084;8.794;2022-10-15T01:15:13;18.20;99.90
9847;DHT22;4962;50.084;8.794;2022-10-15T01:17:45;18.10;99.90
9847;DHT22;4962;50.084;8.794;2022-10-15T01:20:47;18.10;99.90
9847;DHT22;4962;50.084;8.794;2022-10-15T01:26:24;18.10;99.90
9847;DHT22;4962;50.084;8.794;2022-10-15T01:29:04;18.10;99.90
9847;DHT22;4962;50.084;8.794;2022-10-15T01:31:39;18.10;99.90
9847;DHT22;4962;50.084;8.794;2022-10-15T01:34:13;18.00;99.90
9847;DHT22;4962;50.084;8.794;2022-10-15T01:36:49;18.00;99.90
9847;DHT22;4962;50.084;8.794;2022-10-15T01:39:22;18.00;99.90
9847;DHT22;4962;50.084;8.794;2022-10-15T01:41:53;17.90;99.90
9847;DHT22;4962;50.084;8.794;2022-10-15T01:44:25;18.00;99.90
9847;DHT22;4962;50.084;8.794;2022-10-15T01:47:00;17.90;99.90
9847;DHT22;4962;50.084;8.794;2022-10-15T01:49:31;17.90;99.90
9847;DHT22;4962;50.084;8.794;2022-10-15T01:52:04;17.90;99.90
9847;DHT22;4962;50.084;8.794;2022-10-15T01:54:32;17.80;99.90
9847;DHT22;4962;50.084;8.794;2022-10-15T01:56:59;17.80;99.90
9847;DHT22;4962;50.084;8.794;2022-10-15T01:59:29;17.80;99.90
9847;DHT22;4962;50.084;8.794;2022-10-15T02:01:58;17.80;99.90
9847;DHT22;4962;50.084;8.794;2022-10-15T02:04:27;17.80;99.90
9847;DHT22;4962;50.084;8.794;2022-10-15T02:06:58;17.80;99.90
9847;DHT22;4962;50.084;8.794;2022-10-15T02:09:34;17.80;99.90
9847;DHT22;4962;50.084;8.794;2022-10-15T02:12:10;17.80;99.90
9847;DHT22;4962;50.084;8.794;2022-10-15T02:15:00;17.80;99.90
9847;DHT22;4962;50.084;8.794;2022-10-15T02:17:33;17.80;99.90
9847;DHT22;4962;50.084;8.794;2022-10-15T02:20:06;17.90;99.90
9847;DHT22;4962;50.084;8.794;2022-10-15T02:22:42;17.80;99.90
9847;DHT22;4962;50.084;8.794;2022-10-15T02:25:14;17.90;99.90
9847;DHT22;4962;50.084;8.794;2022-10-15T02:27:43;17.90;99.90
9847;DHT22;4962;50.084;8.794;2022-10-15T02:30:11;17.90;99.90
9847;DHT22;4962;50.084;8.794;2022-10-15T02:32:42;17.90;99.90
9847;DHT22;4962;50.084;8.794;2022-10-15T02:35:11;18.00;99.90
9847;DHT22;4962;50.084;8.794;2022-10-15T02:37:42;18.00;99.90
9847;DHT22;4962;50.084;8.794;2022-10-15T02:40:11;18.00;99.90
9847;DHT22;4962;50.084;8.794;2022-10-15T02:42:38;18.10;99.90
9847;DHT22;4962;50.084;8.794;2022-10-15T02:45:06;18.00;99.90
9847;DHT22;4962;50.084;8.794;2022-10-15T02:47:33;18.10;99.90
9847;DHT22;4962;50.084;8.794;2022-10-15T02:50:02;18.10;99.90
9847;DHT22;4962;50.084;8.794;2022-10-15T02:52:28;18.10;99.90
9847;DHT22;4962;50.084;8.794;2022-10-15T02:54:55;18.10;99.90
9847;DHT22;4962;50.084;8.794;2022-10-15T02:57:22;18.10;99.90
9847;DHT22;4962;50.084;8.794;2022-10-15T02:59:49;18.10;99.90
9847;DHT22;4962;50.084;8.794;2022-10-15T03:02:16;18.10;99.90
9847;DHT22;4962;50.084;8.794;2022-10-15T03:04:42;18.20;99.90
9847;DHT22;4962;50.084;8.794;2022-10-15T03:07:11;18.20;99.90
9847;DHT22;4962;50.084;8.794;2022-10-15T03:09:38;18.20;99.90
9847;DHT22;4962;50.084;8.794;2022-10-15T03:12:05;18.20;99.90
9847;DHT22;4962;50.084;8.794;2022-10-15T03:14:32;18.10;99.90
9847;DHT22;4962;50.084;8.794;2022-10-15T03:16:59;18.10;99.90
9847;DHT22;4962;50.084;8.794;2022-10-15T03:19:26;18.10;99.90
9847;DHT22;4962;50.084;8.794;2022-10-15T03:21:53;18.00;99.90
9847;DHT22;4962;50.084;8.794;2022-10-15T03:24:21;18.00;99.90
9847;DHT22;4962;50.084;8.794;2022-10-15T03:26:48;17.90;99.90
9847;DHT22;4962;50.084;8.794;2022-10-15T03:29:15;17.90;99.90
9847;DHT22;4962;50.084;8.794;2022-10-15T03:31:42;17.90;99.90
9847;DHT22;4962;50.084;8.794;2022-10-15T03:34:09;17.80;99.90
9847;DHT22;4962;50.084;8.794;2022-10-15T03:36:35;17.80;99.90
9847;DHT22;4962;50.084;8.794;2022-10-15T03:39:02;17.80;99.90
9847;DHT22;4962;50.084;8.794;2022-10-15T03:41:31;17.80;99.90
9847;DHT22;4962;50.084;8.794;2022-10-15T03:44:00;17.80;99.90
9847;DHT22;4962;50.084;8.794;2022-10-15T03:46:27;17.80;99.90
9847;DHT22;4962;50.084;8.794;2022-10-15T03:48:54;17.80;99.90
9847;DHT22;4962;50.084;8.794;2022-10-15T03:51:21;17.80;99.90
9847;DHT22;4962;50.084;8.794;2022-10-15T03:53:48;17.70;99.90
9847;DHT22;4962;50.084;8.794;2022-10-15T03:56:15;17.70;99.90
9847;DHT22;4962;50.084;8.794;2022-10-15T03:58:44;17.70;99.90
9847;DHT22;4962;50.084;8.794;2022-10-15T04:01:14;17.70;99.90
9847;DHT22;4962;50.084;8.794;2022-10-15T04:03:41;17.60;99.90
9847;DHT22;4962;50.084;8.794;2022-10-15T04:06:08;17.70;99.90
9847;DHT22;4962;50.084;8.794;2022-10-15T04:08:34;17.60;99.90
9847;DHT22;4962;50.084;8.794;2022-10-15T04:11:12;17.60;99.90
9847;DHT22;4962;50.084;8.794;2022-10-15T04:13:39;17.60;99.90
9847;DHT22;4962;50.084;8.794;2022-10-15T04:16:08;17.60;99.90
9847;DHT22;4962;50.084;8.794;2022-10-15T04:18:34;17.60;99.90
9847;DHT22;4962;50.084;8.794;2022-10-15T04:21:01;17.60;99.90
9847;DHT22;4962;50.084;8.794;2022-10-15T04:23:28;17.60;99.90
9847;DHT22;4962;50.084;8.794;2022-10-15T04:25:57;17.60;99.90
9847;DHT22;4962;50.084;8.794;2022-10-15T04:28:26;17.60;99.90
9847;DHT22;4962;50.084;8.794;2022-10-15T04:30:55;17.50;99.90
9847;DHT22;4962;50.084;8.794;2022-10-15T04:33:24;17.60;99.90
9847;DHT22;4962;50.084;8.794;2022-10-15T04:35:58;17.60;99.90
9847;DHT22;4962;50.084;8.794;2022-10-15T04:38:25;17.60;99.90
9847;DHT22;4962;50.084;8.794;2022-10-15T04:40:57;17.60;99.90
9847;DHT22;4962;50.084;8.794;2022-10-15T04:43:25;17.50;99.90
9847;DHT22;4962;50.084;8.794;2022-10-15T04:45:55;17.50;99.90
9847;DHT22;4962;50.084;8.794;2022-10-15T04:48:23;17.50;99.90
9847;DHT22;4962;50.084;8.794;2022-10-15T04:50:50;17.40;99.90
9847;DHT22;4962;50.084;8.794;2022-10-15T04:53:17;17.40;99.90
9847;DHT22;4962;50.084;8.794;2022-10-15T04:55:44;17.40;99.90
9847;DHT22;4962;50.084;8.794;2022-10-15T04:58:11;17.50;99.90
9847;DHT22;4962;50.084;8.794;2022-10-15T05:00:38;17.40;99.90
9847;DHT22;4962;50.084;8.794;2022-10-15T05:03:05;17.40;99.90
9847;DHT22;4962;50.084;8.794;2022-10-15T05:05:33;17.40;99.90
9847;DHT22;4962;50.084;8.794;2022-10-15T05:08:01;17.40;99.90
9847;DHT22;4962;50.084;8.794;2022-10-15T05:10:29;17.40;99.90
9847;DHT22;4962;50.084;8.794;2022-10-15T05:12:56;17.30;99.90
9847;DHT22;4962;50.084;8.794;2022-10-15T05:15:24;17.30;99.90
9847;DHT22;4962;50.084;8.794;2022-10-15T05:17:51;17.30;99.90
9847;DHT22;4962;50.084;8.794;2022-10-15T05:20:18;17.20;99.90
9847;DHT22;4962;50.084;8.794;2022-10-15T05:22:47;17.20;99.90
9847;DHT22;4962;50.084;8.794;2022-10-15T05:25:14;17.20;99.90
9847;DHT22;4962;50.084;8.794;2022-10-15T05:27:40;17.20;99.90
9847;DHT22;4962;50.084;8.794;2022-10-15T05:30:08;17.10;99.90
9847;DHT22;4962;50.084;8.794;2022-10-15T05:32:35;17.10;99.90
9847;DHT22;4962;50.084;8.794;2022-10-15T05:35:02;17.10;99.90
9847;DHT22;4962;50.084;8.794;2022-10-15T05:37:29;17.00;99.90
9847;DHT22;4962;50.084;8.794;2022-10-15T05:39:58;17.00;99.90
9847;DHT22;4962;50.084;8.794;2022-10-15T05:42:25;17.00;99.90
9847;DHT22;4962;50.084;8.794;2022-10-15T05:44:52;17.00;99.90
9847;DHT22;4962;50.084;8.794;2022-10-15T05:47:19;17.00;99.90
9847;DHT22;4962;50.084;8.794;2022-10-15T05:49:45;17.00;99.90
9847;DHT22;4962;50.084;8.794;2022-10-15T05:52:12;17.00;99.90
9847;DHT22;4962;50.084;8.794;2022-10-15T05:54:40;17.00;99.90
9847;DHT22;4962;50.084;8.794;2022-10-15T05:57:08;17.10;99.90
9847;DHT22;4962;50.084;8.794;2022-10-15T05:59:35;17.10;99.90
9847;DHT22;4962;50.084;8.794;2022-10-15T06:02:02;17.10;99.90
9847;DHT22;4962;50.084;8.794;2022-10-15T06:04:29;17.10;99.90
9847;DHT22;4962;50.084;8.794;2022-10-15T06:06:56;17.10;99.90
9847;DHT22;4962;50.084;8.794;2022-10-15T06:09:23;17.20;99.90
9847;DHT22;4962;50.084;8.794;2022-10-15T06:11:50;17.10;99.90
9847;DHT22;4962;50.084;8.794;2022-10-15T06:14:19;17.10;99.90
9847;DHT22;4962;50.084;8.794;2022-10-15T06:16:46;17.10;99.90
9847;DHT22;4962;50.084;8.794;2022-10-15T06:19:15;17.10;99.90
9847;DHT22;4962;50.084;8.794;2022-10-15T06:21:42;17.00;99.90
9847;DHT22;4962;50.084;8.794;2022-10-15T06:24:09;17.10;99.90
9847;DHT22;4962;50.084;8.794;2022-10-15T06:26:36;17.10;99.90
9847;DHT22;4962;50.084;8.794;2022-10-15T06:29:02;17.10;99.90
9847;DHT22;4962;50.084;8.794;2022-10-15T06:31:31;17.20;99.90
9847;DHT22;4962;50.084;8.794;2022-10-15T06:33:58;17.20;99.90
9847;DHT22;4962;50.084;8.794;2022-10-15T06:36:25;17.20;99.90
9847;DHT22;4962;50.084;8.794;2022-10-15T06:38:52;17.20;99.90
9847;DHT22;4962;50.084;8.794;2022-10-15T06:41:18;17.20;99.90
9847;DHT22;4962;50.084;8.794;2022-10-15T06:43:47;17.30;99.90
9847;DHT22;4962;50.084;8.794;2022-10-15T06:46:14;17.30;99.90
9847;DHT22;4962;50.084;8.794;2022-10-15T06:48:43;17.40;99.90
9847;DHT22;4962;50.084;8.794;2022-10-15T06:51:10;17.40;99.90
9847;DHT22;4962;50.084;8.794;2022-10-15T06:53:38;17.50;99.90
9847;DHT22;4962;50.084;8.794;2022-10-15T06:56:06;17.60;99.90
9847;DHT22;4962;50.084;8.794;2022-10-15T06:58:40;17.60;99.90
9847;DHT22;4962;50.084;8.794;2022-10-15T07:01:08;17.70;99.90
9847;DHT22;4962;50.084;8.794;2022-10-15T07:03:34;17.80;99.90
9847;DHT22;4962;50.084;8.794;2022-10-15T07:06:06;17.80;99.90
9847;DHT22;4962;50.084;8.794;2022-10-15T07:08:34;18.00;99.90
9847;DHT22;4962;50.084;8.794;2022-10-15T07:11:02;18.10;99.90
9847;DHT22;4962;50.084;8.794;2022-10-15T07:13:29;18.20;99.90
9847;DHT22;4962;50.084;8.794;2022-10-15T07:15:56;18.20;99.90
9847;DHT22;4962;50.084;8.794;2022-10-15T07:18:23;18.30;99.90
9847;DHT22;4962;50.084;8.794;2022-10-15T07:20:50;18.30;99.90
9847;DHT22;4962;50.084;8.794;2022-10-15T07:23:19;18.30;99.90
9847;DHT22;4962;50.084;8.794;2022-10-15T07:25:46;18.30;99.90
9847;DHT22;4962;50.084;8.794;2022-10-15T07:28:13;18.40;99.90
9847;DHT22;4962;50.084;8.794;2022-10-15T07:30:40;18.40;99.90
9847;DHT22;4962;50.084;8.794;2022-10-15T07:33:07;18.40;99.90
9847;DHT22;4962;50.084;8.794;2022-10-15T07:35:36;18.40;99.90
9847;DHT22;4962;50.084;8.794;2022-10-15T07:38:03;18.50;99.90
9847;DHT22;4962;50.084;8.794;2022-10-15T07:40:32;18.50;99.90
9847;DHT22;4962;50.084;8.794;2022-10-15T07:43:00;18.60;99.90
9847;DHT22;4962;50.084;8.794;2022-10-15T07:45:27;18.60;99.90
9847;DHT22;4962;50.084;8.794;2022-10-15T07:47:54;18.70;99.90
9847;DHT22;4962;50.084;8.794;2022-10-15T07:50:21;18.80;99.90
9847;DHT22;4962;50.084;8.794;2022-10-15T07:52:49;18.80;99.90
9847;DHT22;4962;50.084;8.794;2022-10-15T07:55:16;18.90;99.90
9847;DHT22;4962;50.084;8.794;2022-10-15T07:57:45;18.90;99.90
9847;DHT22;4962;50.084;8.794;2022-10-15T08:00:12;19.00;99.90
9847;DHT22;4962;50.084;8.794;2022-10-15T08:02:39;19.10;99.90
9847;DHT22;4962;50.084;8.794;2022-10-15T08:05:07;19.10;99.90
9847;DHT22;4962;50.084;8.794;2022-10-15T08:07:34;19.10;99.90
9847;DHT22;4962;50.084;8.794;2022-10-15T08:10:02;19.00;99.90
9847;DHT22;4962;50.084;8.794;2022-10-15T08:12:31;19.00;99.90
9847;DHT22;4962;50.084;8.794;2022-10-15T08:15:00;18.90;99.90
9847;DHT22;4962;50.084;8.794;2022-10-15T08:17:30;18.90;99.90
9847;DHT22;4962;50.084;8.794;2022-10-15T08:19:58;18.80;99.90
9847;DHT22;4962;50.084;8.794;2022-10-15T08:22:25;18.80;99.90
9847;DHT22;4962;50.084;8.794;2022-10-15T08:25:03;18.80;99.90
9847;DHT22;4962;50.084;8.794;2022-10-15T08:27:30;18.70;99.90
9847;DHT22;4962;50.084;8.794;2022-10-15T08:29:57;18.70;99.90
9847;DHT22;4962;50.084;8.794;2022-10-15T08:32:25;18.70;99.90
9847;DHT22;4962;50.084;8.794;2022-10-15T08:34:52;18.70;99.90
9847;DHT22;4962;50.084;8.794;2022-10-15T08:37:19;18.80;99.90
9847;DHT22;4962;50.084;8.794;2022-10-15T08:39:46;18.80;99.90
9847;DHT22;4962;50.084;8.794;2022-10-15T08:42:17;18.90;99.90
9847;DHT22;4962;50.084;8.794;2022-10-15T08:44:49;18.90;99.90
9847;DHT22;4962;50.084;8.794;2022-10-15T08:47:27;18.80;99.90
9847;DHT22;4962;50.084;8.794;2022-10-15T08:49:57;18.80;99.90
9847;DHT22;4962;50.084;8.794;2022-10-15T08:52:27;18.80;99.90
9847;DHT22;4962;50.084;8.794;2022-10-15T08:54:55;18.80;99.90
9847;DHT22;4962;50.084;8.794;2022-10-15T08:57:36;18.70;99.90
9847;DHT22;4962;50.084;8.794;2022-10-15T09:00:11;18.70;99.90
9847;DHT22;4962;50.084;8.794;2022-10-15T09:02:45;18.90;99.90
9847;DHT22;4962;50.084;8.794;2022-10-15T09:05:26;19.00;99.90
9847;DHT22;4962;50.084;8.794;2022-10-15T09:08:01;19.10;99.90
9847;DHT22;4962;50.084;8.794;2022-10-15T09:10:34;19.20;99.90
9847;DHT22;4962;50.084;8.794;2022-10-15T09:13:07;19.20;99.90
9847;DHT22;4962;50.084;8.794;2022-10-15T09:15:43;19.30;99.90
9847;DHT22;4962;50.084;8.794;2022-10-15T09:18:17;19.40;99.90
9847;DHT22;4962;50.084;8.794;2022-10-15T09:20:46;19.50;99.90
9847;DHT22;4962;50.084;8.794;2022-10-15T09:23:16;19.60;99.90
9847;DHT22;4962;50.084;8.794;2022-10-15T09:25:48;19.70;99.90
9847;DHT22;4962;50.084;8.794;2022-10-15T09:28:18;19.60;99.90
9847;DHT22;4962;50.084;8.794;2022-10-15T09:30:51;19.60;99.90
9847;DHT22;4962;50.084;8.794;2022-10-15T09:33:31;19.60;99.90
9847;DHT22;4962;50.084;8.794;2022-10-15T09:36:12;19.60;99.90
9847;DHT22;4962;50.084;8.794;2022-10-15T09:38:46;19.60;99.90
9847;DHT22;4962;50.084;8.794;2022-10-15T09:41:19;19.60;99.90
9847;DHT22;4962;50.084;8.794;2022-10-15T09:43:51;19.60;99.90
9847;DHT22;4962;50.084;8.794;2022-10-15T09:46:18;19.60;99.90
9847;DHT22;4962;50.084;8.794;2022-10-15T09:48:51;19.60;99.90
9847;DHT22;4962;50.084;8.794;2022-10-15T09:51:24;19.70;99.90
9847;DHT22;4962;50.084;8.794;2022-10-15T09:54:00;19.70;99.90
9847;DHT22;4962;50.084;8.794;2022-10-15T09:56:32;19.80;99.90
9847;DHT22;4962;50.084;8.794;2022-10-15T09:59:01;19.90;99.90
9847;DHT22;4962;50.084;8.794;2022-10-15T10:01:30;20.00;99.90
9847;DHT22;4962;50.084;8.794;2022-10-15T10:04:11;20.10;99.90
9847;DHT22;4962;50.084;8.794;2022-10-15T10:06:49;20.20;99.90
9847;DHT22;4962;50.084;8.794;2022-10-15T10:09:30;20.30;99.90
9847;DHT22;4962;50.084;8.794;2022-10-15T10:11:59;20.40;99.90
9847;DHT22;4962;50.084;8.794;2022-10-15T10:14:30;20.50;99.90
9847;DHT22;4962;50.084;8.794;2022-10-15T10:17:06;20.60;99.90
9847;DHT22;4962;50.084;8.794;2022-10-15T10:19:35;20.60;99.90
9847;DHT22;4962;50.084;8.794;2022-10-15T10:22:14;20.60;99.90
9847;DHT22;4962;50.084;8.794;2022-10-15T10:24:44;20.70;99.90
9847;DHT22;4962;50.084;8.794;2022-10-15T10:27:18;20.70;99.90
9847;DHT22;4962;50.084;8.794;2022-10-15T10:29:53;20.80;99.90
9847;DHT22;4962;50.084;8.794;2022-10-15T10:32:25;20.80;99.90
9847;DHT22;4962;50.084;8.794;2022-10-15T10:34:54;20.80;99.90
9847;DHT22;4962;50.084;8.794;2022-10-15T10:37:22;20.80;99.90
9847;DHT22;4962;50.084;8.794;2022-10-15T10:39:53;20.80;99.90
9847;DHT22;4962;50.084;8.794;2022-10-15T10:46:03;20.70;99.90
9847;DHT22;4962;50.084;8.794;2022-10-15T10:48:37;20.70;99.90
9847;DHT22;4962;50.084;8.794;2022-10-15T10:51:10;20.70;99.90
9847;DHT22;4962;50.084;8.794;2022-10-15T10:53:46;20.80;99.90
9847;DHT22;4962;50.084;8.794;2022-10-15T10:56:14;20.90;99.90
9847;DHT22;4962;50.084;8.794;2022-10-15T10:58:42;21.00;99.90
9847;DHT22;4962;50.084;8.794;2022-10-15T11:01:11;20.90;99.90
9847;DHT22;4962;50.084;8.794;2022-10-15T11:03:40;20.90;99.90
9847;DHT22;4962;50.084;8.794;2022-10-15T11:06:43;20.90;99.90
9847;DHT22;4962;50.084;8.794;2022-10-15T11:12:22;20.80;99.90
9847;DHT22;4962;50.084;8.794;2022-10-15T11:14:54;20.80;99.90
9847;DHT22;4962;50.084;8.794;2022-10-15T11:17:27;20.80;99.90
9847;DHT22;4962;50.084;8.794;2022-10-15T11:20:04;20.80;99.90
9847;DHT22;4962;50.084;8.794;2022-10-15T11:22:50;20.80;99.90
9847;DHT22;4962;50.084;8.794;2022-10-15T11:25:28;20.80;99.90
9847;DHT22;4962;50.084;8.794;2022-10-15T11:28:09;20.70;99.90
9847;DHT22;4962;50.084;8.794;2022-10-15T11:30:47;20.70;99.90
9847;DHT22;4962;50.084;8.794;2022-10-15T11:33:29;20.60;99.90
9847;DHT22;4962;50.084;8.794;2022-10-15T11:36:09;20.60;99.90
9847;DHT22;4962;50.084;8.794;2022-10-15T11:38:46;20.70;99.90
9847;DHT22;4962;50.084;8.794;2022-10-15T11:41:28;20.70;99.90
9847;DHT22;4962;50.084;8.794;2022-10-15T11:44:08;20.70;99.90
9847;DHT22;4962;50.084;8.794;2022-10-15T11:46:45;20.70;99.90
9847;DHT22;4962;50.084;8.794;2022-10-15T11:49:24;20.70;99.90
9847;DHT22;4962;50.084;8.794;2022-10-15T11:52:08;20.70;99.90
9847;DHT22;4962;50.084;8.794;2022-10-15T11:54:42;20.70;99.90
9847;DHT22;4962;50.084;8.794;2022-10-15T11:57:12;20.70;99.90
9847;DHT22;4962;50.084;8.794;2022-10-15T11:59:45;20.70;99.90
9847;DHT22;4962;50.084;8.794;2022-10-15T12:02:17;20.60;99.90
9847;DHT22;4962;50.084;8.794;2022-10-15T12:04:47;20.60;99.90
9847;DHT22;4962;50.084;8.794;2022-10-15T12:07:19;20.60;99.90
9847;DHT22;4962;50.084;8.794;2022-10-15T12:09:51;20.50;99.90
9847;DHT22;4962;50.084;8.794;2022-10-15T12:12:32;20.50;99.90
9847;DHT22;4962;50.084;8.794;2022-10-15T12:15:11;20.60;99.90
9847;DHT22;4962;50.084;8.794;2022-10-15T12:17:46;20.60;99.90
9847;DHT22;4962;50.084;8.794;2022-10-15T12:20:15;20.60;99.90
9847;DHT22;4962;50.084;8.794;2022-10-15T12:22:53;20.70;99.90
9847;DHT22;4962;50.084;8.794;2022-10-15T12:25:46;20.80;99.90
9847;DHT22;4962;50.084;8.794;2022-10-15T12:28:16;20.80;99.90
9847;DHT22;4962;50.084;8.794;2022-10-15T12:30:56;20.80;99.90
9847;DHT22;4962;50.084;8.794;2022-10-15T12:33:28;20.80;99.90
9847;DHT22;4962;50.084;8.794;2022-10-15T12:35:58;20.80;99.90
9847;DHT22;4962;50.084;8.794;2022-10-15T12:38:29;20.80;99.90
9847;DHT22;4962;50.084;8.794;2022-10-15T12:41:04;20.80;99.90
9847;DHT22;4962;50.084;8.794;2022-10-15T12:43:34;20.80;99.90
9847;DHT22;4962;50.084;8.794;2022-10-15T12:46:03;20.90;99.90
9847;DHT22;4962;50.084;8.794;2022-10-15T12:48:34;21.00;99.90
9847;DHT22;4962;50.084;8.794;2022-10-15T12:51:29;21.10;99.90
9847;DHT22;4962;50.084;8.794;2022-10-15T12:53:57;21.20;99.90
9847;DHT22;4962;50.084;8.794;2022-10-15T12:56:34;21.20;99.90
9847;DHT22;4962;50.084;8.794;2022-10-15T12:59:02;21.30;99.90
9847;DHT22;4962;50.084;8.794;2022-10-15T13:01:49;21.40;99.90
9847;DHT22;4962;50.084;8.794;2022-10-15T13:04:17;21.40;99.90
9847;DHT22;4962;50.084;8.794;2022-10-15T13:06:45;21.50;99.90
9847;DHT22;4962;50.084;8.794;2022-10-15T13:09:29;21.60;99.90
9847;DHT22;4962;50.084;8.794;2022-10-15T13:12:05;21.70;99.90
9847;DHT22;4962;50.084;8.794;2022-10-15T13:14:36;21.70;99.90
9847;DHT22;4962;50.084;8.794;2022-10-15T13:17:11;21.80;99.90
9847;DHT22;4962;50.084;8.794;2022-10-15T13:19:45;21.90;99.90
9847;DHT22;4962;50.084;8.794;2022-10-15T13:22:21;21.90;99.90
9847;DHT22;4962;50.084;8.794;2022-10-15T13:24:48;22.00;99.90
9847;DHT22;4962;50.084;8.794;2022-10-15T13:27:22;22.00;99.90
9847;DHT22;4962;50.084;8.794;2022-10-15T13:29:53;22.00;99.90
9847;DHT22;4962;50.084;8.794;2022-10-15T13:32:21;22.10;99.90
9847;DHT22;4962;50.084;8.794;2022-10-15T13:34:49;22.10;99.90
9847;DHT22;4962;50.084;8.794;2022-10-15T13:37:30;22.20;99.90
9847;DHT22;4962;50.084;8.794;2022-10-15T13:40:01;22.20;99.90
9847;DHT22;4962;50.084;8.794;2022-10-15T13:42:30;22.20;99.90
9847;DHT22;4962;50.084;8.794;2022-10-15T13:45:00;22.30;99.90
9847;DHT22;4962;50.084;8.794;2022-10-15T13:47:30;22.30;99.90
9847;DHT22;4962;50.084;8.794;2022-10-15T13:50:12;22.30;99.90
9847;DHT22;4962;50.084;8.794;2022-10-15T13:55:38;22.30;99.90
9847;DHT22;4962;50.084;8.794;2022-10-15T13:58:17;22.40;99.90
9847;DHT22;4962;50.084;8.794;2022-10-15T14:00:50;22.40;99.90
9847;DHT22;4962;50.084;8.794;2022-10-15T14:03:20;22.40;99.90
9847;DHT22;4962;50.084;8.794;2022-10-15T14:05:50;22.30;99.90
9847;DHT22;4962;50.084;8.794;2022-10-15T14:08:20;22.30;99.90
9847;DHT22;4962;50.084;8.794;2022-10-15T14:10:48;22.20;99.90
9847;DHT22;4962;50.084;8.794;2022-10-15T14:13:17;22.20;99.90
9847;DHT22;4962;50.084;8.794;2022-10-15T14:15:51;22.20;99.90
9847;DHT22;4962;50.084;8.794;2022-10-15T14:18:29;22.30;99.90
9847;DHT22;4962;50.084;8.794;2022-10-15T14:20:57;22.20;99.90
9847;DHT22;4962;50.084;8.794;2022-10-15T14:23:25;22.20;99.90
9847;DHT22;4962;50.084;8.794;2022-10-15T14:25:55;22.20;99.90
9847;DHT22;4962;50.084;8.794;2022-10-15T14:28:24;22.20;99.90
9847;DHT22;4962;50.084;8.794;2022-10-15T14:30:52;22.20;99.90
9847;DHT22;4962;50.084;8.794;2022-10-15T14:33:47;22.20;99.90
9847;DHT22;4962;50.084;8.794;2022-10-15T14:36:25;22.20;99.90
9847;DHT22;4962;50.084;8.794;2022-10-15T14:38:53;22.20;99.90
9847;DHT22;4962;50.084;8.794;2022-10-15T14:41:26;22.20;99.90
9847;DHT22;4962;50.084;8.794;2022-10-15T14:44:04;22.20;99.90
9847;DHT22;4962;50.084;8.794;2022-10-15T14:46:38;22.10;99.90
9847;DHT22;4962;50.084;8.794;2022-10-15T14:49:23;22.20;99.90
9847;DHT22;4962;50.084;8.794;2022-10-15T14:51:53;22.20;99.90
9847;DHT22;4962;50.084;8.794;2022-10-15T14:54:23;22.20;99.90
9847;DHT22;4962;50.084;8.794;2022-10-15T14:56:54;22.20;99.90
9847;DHT22;4962;50.084;8.794;2022-10-15T14:59:28;22.20;99.90
9847;DHT22;4962;50.084;8.794;2022-10-15T15:01:57;22.10;99.90
9847;DHT22;4962;50.084;8.794;2022-10-15T15:04:33;22.10;99.90
9847;DHT22;4962;50.084;8.794;2022-10-15T15:07:00;22.00;99.90
9847;DHT22;4962;50.084;8.794;2022-10-15T15:09:27;21.90;99.90
9847;DHT22;4962;50.084;8.794;2022-10-15T15:11:54;21.80;99.90
9847;DHT22;4962;50.084;8.794;2022-10-15T15:14:23;21.70;99.90
9847;DHT22;4962;50.084;8.794;2022-10-15T15:16:51;21.70;99.90
9847;DHT22;4962;50.084;8.794;2022-10-15T15:19:17;21.70;99.90
9847;DHT22;4962;50.084;8.794;2022-10-15T15:21:44;21.60;99.90
9847;DHT22;4962;50.084;8.794;2022-10-15T15:24:11;21.60;99.90
9847;DHT22;4962;50.084;8.794;2022-10-15T15:26:38;21.60;99.90
9847;DHT22;4962;50.084;8.794;2022-10-15T15:29:10;21.50;99.90
9847;DHT22;4962;50.084;8.794;2022-10-15T15:31:40;21.50;99.90
9847;DHT22;4962;50.084;8.794;2022-10-15T15:34:07;21.50;99.90
9847;DHT22;4962;50.084;8.794;2022-10-15T15:36:34;21.50;99.90
9847;DHT22;4962;50.084;8.794;2022-10-15T15:39:01;21.50;99.90
9847;DHT22;4962;50.084;8.794;2022-10-15T15:41:28;21.50;99.90
9847;DHT22;4962;50.084;8.794;2022-10-15T15:43:55;21.50;99.90
9847;DHT22;4962;50.084;8.794;2022-10-15T15:46:22;21.50;99.90
9847;DHT22;4962;50.084;8.794;2022-10-15T15:48:50;21.50;99.90
9847;DHT22;4962;50.084;8.794;2022-10-15T15:51:21;21.50;99.90
9847;DHT22;4962;50.084;8.794;2022-10-15T15:53:49;21.50;99.90
9847;DHT22;4962;50.084;8.794;2022-10-15T15:56:16;21.40;99.90
9847;DHT22;4962;50.084;8.794;2022-10-15T15:58:43;21.40;99.90
9847;DHT22;4962;50.084;8.794;2022-10-15T16:01:10;21.30;99.90
9847;DHT22;4962;50.084;8.794;2022-10-15T16:03:37;21.30;99.90
9847;DHT22;4962;50.084;8.794;2022-10-15T16:06:07;21.20;99.90
9847;DHT22;4962;50.084;8.794;2022-10-15T16:08:34;21.20;99.90
9847;DHT22;4962;50.084;8.794;2022-10-15T16:11:02;21.20;99.90
9847;DHT22;4962;50.084;8.794;2022-10-15T16:13:29;21.10;99.90
9847;DHT22;4962;50.084;8.794;2022-10-15T16:15:57;21.10;99.90
9847;DHT22;4962;50.084;8.794;2022-10-15T16:18:24;21.00;99.90
9847;DHT22;4962;50.084;8.794;2022-10-15T16:20:51;21.00;99.90
9847;DHT22;4962;50.084;8.794;2022-10-15T16:23:19;21.00;99.90
9847;DHT22;4962;50.084;8.794;2022-10-15T16:25:46;21.00;99.90
9847;DHT22;4962;50.084;8.794;2022-10-15T16:28:13;20.90;99.90
9847;DHT22;4962;50.084;8.794;2022-10-15T16:30:40;20.90;99.90
9847;DHT22;4962;50.084;8.794;2022-10-15T16:33:13;20.90;99.90
9847;DHT22;4962;50.084;8.794;2022-10-15T16:35:40;20.90;99.90